Time;durP1;ratioP1;P1;durP2;ratioP2;P2;SDS_P1;SDS_P2;PMS_P1;PMS_P2;Temp;Humidity;BMP_temperature;BMP_pressure;BME280_temperature;BME280_humidity;BME280_pressure;Samples;Min_cycle;Max_cycle;Signal;HPM_P1;HPM_P2
2023/12/18 00:00:48;;;;;;;;;;;;;;;;;;5095654;28;19908;-71
2023/12/18 00:03:14;;;;;;;;;;;;;;;;;;5096080;28;19908;-71
2023/12/18 00:05:40;;;;;;;;;;;;;;;;;;5095759;28;20296;-71
2023/12/18 00:08:06;;;;;;;;;;;;;;;;;;5095537;28;20002;-69
2023/12/18 00:10:32;;;;;;;;;;;;;;;;;;5095904;28;19944;-70
2023/12/18 00:12:58;;;;;;;;;;;;;;;;;;5096296;28;19940;-70
2023/12/18 00:15:24;;;;;;;;;;;;;;;;;;5095632;28;20386;-69
2023/12/18 00:17:50;;;;;;;;;;;;;;;;;;5096090;28;19954;-70
2023/12/18 00:20:16;;;;;;;;;;;;;;;;;;5095773;28;19915;-70
2023/12/18 00:22:42;;;;;;;;;;;;;;;;;;5077109;28;19908;-70
2023/12/18 00:25:08;;;;;;;;;;;;;;;;;;5095515;28;20295;-70
2023/12/18 00:27:34;;;;;;;;;;;;;;;;;;5095597;28;19915;-69
2023/12/18 00:30:00;;;;;;;;;;;;;;;;;;5095091;28;19908;-69
2023/12/18 00:32:25;;;;;;;;;;;;;;;;;;5095639;28;20395;-70
2023/12/18 00:34:51;;;;;;;;;;;;;;;;;;5095432;28;19915;-70
2023/12/18 00:37:18;;;;;;;;;;;;;;;;;;5076876;28;19919;-70
2023/12/18 00:39:44;;;;;;;;;;;;;;;;;;5095295;28;20301;-69
2023/12/18 00:42:09;;;;;;;;;;;;;;;;;;5076694;28;19909;-70
2023/12/18 00:44:35;;;;;;;;;;;;;;;;;;5095204;28;19916;-70
2023/12/18 00:47:02;;;;;;;;;;;;;;;;;;5095449;28;19912;-70
2023/12/18 00:49:28;;;;;;;;;;;;;;;;;;5093897;28;20002;-70
2023/12/18 00:51:54;;;;;;;;;;;;;;;;;;5076892;28;20011;-69
2023/12/18 00:54:20;;;;;;;;;;;;;;;;;;5076849;28;19915;-71
2023/12/18 00:56:46;;;;;;;;;;;;;;;;;;5094603;28;19908;-70
2023/12/18 00:59:12;;;;;;;;;;;;;;;;;;5095012;28;19908;-69
2023/12/18 01:01:38;;;;;;;;;;;;;;;;;;5076711;28;19915;-69
2023/12/18 01:04:04;;;;;;;;;;;;;;;;;;5094305;28;19908;-67
2023/12/18 01:06:30;;;;;;;;;;;;;;;;;;5094760;28;19923;-69
2023/12/18 01:08:56;;;;;;;;;;;;;;;;;;5094772;28;19947;-69
2023/12/18 01:11:22;;;;;;;;;;;;;;;;;;5094296;28;20378;-70
2023/12/18 01:13:48;;;;;;;;;;;;;;;;;;5094933;28;20218;-69
2023/12/18 01:16:14;;;;;;;;;;;;;;;;;;5076448;28;19909;-69
2023/12/18 01:18:40;;;;;;;;;;;;;;;;;;5094311;28;19962;-70
2023/12/18 01:21:06;;;;;;;;;;;;;;;;;;5076466;28;19942;-70
2023/12/18 01:23:32;;;;;;;;;;;;;;;;;;5094527;28;19908;-70
2023/12/18 01:25:58;;;;;;;;;;;;;;;;;;5094149;28;20421;-69
2023/12/18 01:28:23;;;;;;;;;;;;;;;;;;5094404;28;19914;-70
2023/12/18 01:30:49;;;;;;;;;;;;;;;;;;5076241;28;19962;-71
2023/12/18 01:33:15;;;;;;;;;;;;;;;;;;5075806;28;19915;-70
2023/12/18 01:35:41;;;;;;;;;;;;;;;;;;5076158;28;20389;-70
2023/12/18 01:38:09;;;;;;;;;;;;;;;;;;5094245;28;19908;-70
2023/12/18 01:40:35;;;;;;;;;;;;;;;;;;5093878;28;19915;-69
2023/12/18 01:43:01;;;;;;;;;;;;;;;;;;5094189;28;19912;-70
2023/12/18 01:45:27;;;;;;;;;;;;;;;;;;5093710;28;20287;-70
2023/12/18 01:47:53;;;;;;;;;;;;;;;;;;5094142;28;19950;-70
2023/12/18 01:50:19;;;;;;;;;;;;;;;;;;5094262;28;19909;-71
2023/12/18 01:52:45;;;;;;;;;;;;;;;;;;5093791;28;19968;-71
2023/12/18 01:55:11;;;;;;;;;;;;;;;;;;5094052;28;19919;-71
2023/12/18 01:57:37;;;;;;;;;;;;;;;;;;5094034;28;19908;-71
2023/12/18 02:00:03;;;;;;;;;;;;;;;;;;5093405;28;19908;-71
2023/12/18 02:02:29;;;;;;;;;;;;;;;;;;5075895;28;19919;-71
2023/12/18 02:04:55;;;;;;;;;;;;;;;;;;5093605;28;19924;-70
2023/12/18 02:07:21;;;;;;;;;;;;;;;;;;5075499;28;20055;-70
2023/12/18 02:09:46;;;;;;;;;;;;;;;;;;5093919;28;19962;-72
2023/12/18 02:12:12;;;;;;;;;;;;;;;;;;5093879;28;19908;-70
2023/12/18 02:14:38;;;;;;;;;;;;;;;;;;5093502;28;20011;-70
2023/12/18 02:17:04;;;;;;;;;;;;;;;;;;5093859;28;19909;-70
2023/12/18 02:19:30;;;;;;;;;;;;;;;;;;5093858;28;19912;-70
2023/12/18 02:21:56;;;;;;;;;;;;;;;;;;5093457;28;20326;-70
2023/12/18 02:24:22;;;;;;;;;;;;;;;;;;5093731;28;19908;-70
2023/12/18 02:26:48;;;;;;;;;;;;;;;;;;5093734;28;19968;-70
2023/12/18 02:29:14;;;;;;;;;;;;;;;;;;5093379;28;20003;-70
2023/12/18 02:31:40;;;;;;;;;;;;;;;;;;5093721;28;20019;-71
2023/12/18 02:34:06;;;;;;;;;;;;;;;;;;5075573;28;19909;-71
2023/12/18 02:36:32;;;;;;;;;;;;;;;;;;5093306;28;20001;-71
2023/12/18 02:38:58;;;;;;;;;;;;;;;;;;5093664;28;19916;-71
2023/12/18 02:41:24;;;;;;;;;;;;;;;;;;5093661;28;20007;-70
2023/12/18 02:43:50;;;;;;;;;;;;;;;;;;5093197;28;20401;-71
2023/12/18 02:46:16;;;;;;;;;;;;;;;;;;5093491;28;19916;-71
2023/12/18 02:48:42;;;;;;;;;;;;;;;;;;5075121;28;19916;-71
2023/12/18 02:51:08;;;;;;;;;;;;;;;;;;5093632;28;20364;-71
2023/12/18 02:53:34;;;;;;;;;;;;;;;;;;5075400;28;20441;-70
2023/12/18 02:56:00;;;;;;;;;;;;;;;;;;5093083;28;19916;-71
2023/12/18 02:58:25;;;;;;;;;;;;;;;;;;5093923;28;19951;-71
2023/12/18 03:00:51;;;;;;;;;;;;;;;;;;5093486;28;19908;-71
2023/12/18 03:03:17;;;;;;;;;;;;;;;;;;5093061;28;20376;-71
2023/12/18 03:05:43;;;;;;;;;;;;;;;;;;5093246;28;20288;-71
2023/12/18 03:08:09;;;;;;;;;;;;;;;;;;5093430;28;20296;-71
2023/12/18 03:10:35;;;;;;;;;;;;;;;;;;5092963;28;19912;-72
2023/12/18 03:13:01;;;;;;;;;;;;;;;;;;5094965;28;19915;-69
2023/12/18 03:15:27;;;;;;;;;;;;;;;;;;5097057;28;19908;-70
2023/12/18 03:17:53;;;;;;;;;;;;;;;;;;5096767;28;19915;-70
2023/12/18 03:20:19;;;;;;;;;;;;;;;;;;5096988;28;20371;-70
2023/12/18 03:22:45;;;;;;;;;;;;;;;;;;5096892;28;20315;-70
2023/12/18 03:25:11;;;;;;;;;;;;;;;;;;5078209;28;19962;-70
2023/12/18 03:27:37;;;;;;;;;;;;;;;;;;5097360;28;19912;-70
2023/12/18 03:30:03;;;;;;;;;;;;;;;;;;5096648;28;20383;-70
2023/12/18 03:32:29;;;;;;;;;;;;;;;;;;5096221;28;20329;-70
2023/12/18 03:34:55;;;;;;;;;;;;;;;;;;5096594;28;20346;-70
2023/12/18 03:37:21;;;;;;;;;;;;;;;;;;5096550;28;19912;-70
2023/12/18 03:39:47;;;;;;;;;;;;;;;;;;5096076;28;19920;-70
2023/12/18 03:42:13;;;;;;;;;;;;;;;;;;5096538;28;19908;-70
2023/12/18 03:44:39;;;;;;;;;;;;;;;;;;5078248;28;19909;-70
2023/12/18 03:47:05;;;;;;;;;;;;;;;;;;5096237;28;20005;-70
2023/12/18 03:49:30;;;;;;;;;;;;;;;;;;5078179;28;19912;-70
2023/12/18 03:51:56;;;;;;;;;;;;;;;;;;5095939;28;19908;-70
2023/12/18 03:54:22;;;;;;;;;;;;;;;;;;5096248;28;20357;-70
2023/12/18 03:56:48;;;;;;;;;;;;;;;;;;5096434;28;20284;-70
2023/12/18 03:59:14;;;;;;;;;;;;;;;;;;5095739;28;20352;-70
2023/12/18 04:01:40;;;;;;;;;;;;;;;;;;5096126;28;19980;-70
2023/12/18 04:04:06;;;;;;;;;;;;;;;;;;5096033;28;19915;-69
2023/12/18 04:06:34;;;;;;;;;;;;;;;;;;5095638;28;19916;-70
2023/12/18 04:09:00;;;;;;;;;;;;;;;;;;5096237;28;19909;-70
2023/12/18 04:11:26;;;;;;;;;;;;;;;;;;5095965;28;19915;-70
2023/12/18 04:13:52;;;;;;;;;;;;;;;;;;5095510;28;19908;-70
2023/12/18 04:16:17;;;;;;;;;;;;;;;;;;5095875;28;19912;-70
2023/12/18 04:18:43;;;;;;;;;;;;;;;;;;5077629;28;20364;-70
2023/12/18 04:21:09;;;;;;;;;;;;;;;;;;5095858;28;20360;-70
2023/12/18 04:23:35;;;;;;;;;;;;;;;;;;5095636;28;19910;-70
2023/12/18 04:26:01;;;;;;;;;;;;;;;;;;5095781;28;19920;-70
2023/12/18 04:28:27;;;;;;;;;;;;;;;;;;5095187;28;19996;-70
2023/12/18 04:30:53;;;;;;;;;;;;;;;;;;5095594;28;19908;-70
2023/12/18 04:33:19;;;;;;;;;;;;;;;;;;5077330;28;20394;-72
2023/12/18 04:35:45;;;;;;;;;;;;;;;;;;5076851;28;20317;-71
2023/12/18 04:38:11;;;;;;;;;;;;;;;;;;5095260;28;19912;-71
2023/12/18 04:40:37;;;;;;;;;;;;;;;;;;5095348;28;19908;-71
2023/12/18 04:43:03;;;;;;;;;;;;;;;;;;5095031;28;20361;-71
2023/12/18 04:45:29;;;;;;;;;;;;;;;;;;5095195;28;19916;-72
2023/12/18 04:47:55;;;;;;;;;;;;;;;;;;5095212;28;20028;-71
2023/12/18 04:50:21;;;;;;;;;;;;;;;;;;5094754;28;19986;-71
2023/12/18 04:52:47;;;;;;;;;;;;;;;;;;5095155;28;19908;-72
2023/12/18 04:55:13;;;;;;;;;;;;;;;;;;5094873;28;19915;-71
2023/12/18 04:57:39;;;;;;;;;;;;;;;;;;5095015;28;19921;-72
2023/12/18 05:00:05;;;;;;;;;;;;;;;;;;5094990;28;19993;-69
2023/12/18 05:02:31;;;;;;;;;;;;;;;;;;5076357;28;19930;-71
2023/12/18 05:04:57;;;;;;;;;;;;;;;;;;5094542;28;20431;-69
2023/12/18 05:07:23;;;;;;;;;;;;;;;;;;5094887;28;19939;-70
2023/12/18 05:09:49;;;;;;;;;;;;;;;;;;5093531;28;19912;-70
2023/12/18 05:12:15;;;;;;;;;;;;;;;;;;5093567;28;19954;-71
2023/12/18 05:14:41;;;;;;;;;;;;;;;;;;5094818;28;19912;-70
2023/12/18 05:17:07;;;;;;;;;;;;;;;;;;5094237;28;19915;-70
2023/12/18 05:19:33;;;;;;;;;;;;;;;;;;5094863;28;19908;-70
2023/12/18 05:21:59;;;;;;;;;;;;;;;;;;5094919;28;19939;-70
2023/12/18 05:24:25;;;;;;;;;;;;;;;;;;5094137;28;19908;-71
2023/12/18 05:26:51;;;;;;;;;;;;;;;;;;5076276;28;20266;-70
2023/12/18 05:29:17;;;;;;;;;;;;;;;;;;5094614;28;19912;-70
2023/12/18 05:31:43;;;;;;;;;;;;;;;;;;5094100;28;19948;-69
2023/12/18 05:34:09;;;;;;;;;;;;;;;;;;5094101;28;19934;-70
2023/12/18 05:36:35;;;;;;;;;;;;;;;;;;5094245;28;19908;-70
2023/12/18 05:39:01;;;;;;;;;;;;;;;;;;5093861;28;19966;-70
2023/12/18 05:41:27;;;;;;;;;;;;;;;;;;5094212;28;19962;-70
2023/12/18 05:43:53;;;;;;;;;;;;;;;;;;5075053;28;20287;-70
2023/12/18 05:46:19;;;;;;;;;;;;;;;;;;5093107;28;19923;-70
2023/12/18 05:48:45;;;;;;;;;;;;;;;;;;5075839;28;20373;-70
2023/12/18 05:51:11;;;;;;;;;;;;;;;;;;5092775;28;20013;-70
2023/12/18 05:53:37;;;;;;;;;;;;;;;;;;5092195;28;19908;-70
2023/12/18 05:56:03;;;;;;;;;;;;;;;;;;5092295;28;20075;-70
2023/12/18 05:58:29;;;;;;;;;;;;;;;;;;5092254;28;19912;-70
2023/12/18 06:00:54;;;;;;;;;;;;;;;;;;5091548;28;19914;-70
2023/12/18 06:03:20;;;;;;;;;;;;;;;;;;5091916;28;19912;-70
2023/12/18 06:05:46;;;;;;;;;;;;;;;;;;5091231;28;20471;-70
2023/12/18 06:08:12;;;;;;;;;;;;;;;;;;5074527;28;19908;-71
2023/12/18 06:10:38;;;;;;;;;;;;;;;;;;5094278;28;20368;-70
2023/12/18 06:13:04;;;;;;;;;;;;;;;;;;5093525;28;20423;-70
2023/12/18 06:15:30;;;;;;;;;;;;;;;;;;5093787;28;19918;-70
2023/12/18 06:17:56;;;;;;;;;;;;;;;;;;5093655;28;19908;-70
2023/12/18 06:20:22;;;;;;;;;;;;;;;;;;5093388;28;20356;-70
2023/12/18 06:22:48;;;;;;;;;;;;;;;;;;5092708;28;20279;-70
2023/12/18 06:25:14;;;;;;;;;;;;;;;;;;5064328;28;20387;-70
2023/12/18 06:27:43;;;;;;;;;;;;;;;;;;5069258;28;19913;-70
2023/12/18 06:30:09;;;;;;;;;;;;;;;;;;5091142;28;19908;-70
2023/12/18 06:32:35;;;;;;;;;;;;;;;;;;5070782;28;19912;-68
2023/12/18 06:35:01;;;;;;;;;;;;;;;;;;5091608;28;19916;-70
2023/12/18 06:37:27;;;;;;;;;;;;;;;;;;5091197;28;19915;-70
2023/12/18 06:39:53;;;;;;;;;;;;;;;;;;5091720;28;19918;-70
2023/12/18 06:42:19;;;;;;;;;;;;;;;;;;5091684;28;20004;-71
2023/12/18 06:44:45;;;;;;;;;;;;;;;;;;5083037;28;20003;-70
2023/12/18 06:47:11;;;;;;;;;;;;;;;;;;5097328;28;19920;-71
2023/12/18 06:49:37;;;;;;;;;;;;;;;;;;5091110;28;20543;-69
2023/12/18 06:52:03;;;;;;;;;;;;;;;;;;5092981;28;20330;-70
2023/12/18 06:54:29;;;;;;;;;;;;;;;;;;5093559;28;20002;-69
2023/12/18 06:56:55;;;;;;;;;;;;;;;;;;5075617;28;19912;-69
2023/12/18 06:59:21;;;;;;;;;;;;;;;;;;5095037;28;20012;-69
2023/12/18 07:01:47;;;;;;;;;;;;;;;;;;5076825;28;19908;-70
2023/12/18 07:04:13;;;;;;;;;;;;;;;;;;5093936;28;19909;-69
2023/12/18 07:06:41;;;;;;;;;;;;;;;;;;5094371;28;19924;-69
2023/12/18 07:09:06;;;;;;;;;;;;;;;;;;5082061;28;20383;-71
2023/12/18 07:11:32;;;;;;;;;;;;;;;;;;5073933;28;20297;-68
2023/12/18 07:13:58;;;;;;;;;;;;;;;;;;5075277;28;20315;-69
2023/12/18 07:16:25;;;;;;;;;;;;;;;;;;5089051;28;19916;-70
2023/12/18 07:18:51;;;;;;;;;;;;;;;;;;5094577;28;20391;-68
2023/12/18 07:21:17;;;;;;;;;;;;;;;;;;5084877;28;20269;-69
2023/12/18 07:23:43;;;;;;;;;;;;;;;;;;5093277;28;20334;-70
2023/12/18 07:26:12;;;;;;;;;;;;;;;;;;5093799;28;19923;-70
2023/12/18 07:28:38;;;;;;;;;;;;;;;;;;5093192;28;19912;-68
2023/12/18 07:31:04;;;;;;;;;;;;;;;;;;5092852;28;20277;-67
2023/12/18 07:33:30;;;;;;;;;;;;;;;;;;5094036;28;20008;-69
2023/12/18 07:35:56;;;;;;;;;;;;;;;;;;5092889;28;19908;-69
2023/12/18 07:38:22;;;;;;;;;;;;;;;;;;5073664;28;19923;-70
2023/12/18 07:40:48;;;;;;;;;;;;;;;;;;5074561;28;19987;-69
2023/12/18 07:43:14;;;;;;;;;;;;;;;;;;5093117;28;20348;-70
2023/12/18 07:45:40;;;;;;;;;;;;;;;;;;5093118;28;20008;-68
2023/12/18 07:48:06;;;;;;;;;;;;;;;;;;5093030;28;19994;-68
2023/12/18 07:50:32;;;;;;;;;;;;;;;;;;5092761;28;19929;-69
2023/12/18 07:52:57;;;;;;;;;;;;;;;;;;5075567;28;19908;-67
2023/12/18 07:55:23;;;;;;;;;;;;;;;;;;5093608;28;20292;-68
2023/12/18 07:57:49;;;;;;;;;;;;;;;;;;5093224;28;19952;-69
2023/12/18 08:00:15;;;;;;;;;;;;;;;;;;5091833;28;19912;-68
2023/12/18 08:02:41;;;;;;;;;;;;;;;;;;5092764;28;19931;-67
2023/12/18 08:05:07;;;;;;;;;;;;;;;;;;5092081;28;20372;-68
2023/12/18 08:07:33;;;;;;;;;;;;;;;;;;5092497;28;19956;-70
2023/12/18 08:10:00;;;;;;;;;;;;;;;;;;5091640;28;20406;-68
2023/12/18 08:12:26;;;;;;;;;;;;;;;;;;5092224;28;19958;-68
2023/12/18 08:14:52;;;;;;;;;;;;;;;;;;5075267;28;19951;-69
2023/12/18 08:17:18;;;;;;;;;;;;;;;;;;5094479;28;19919;-69
2023/12/18 08:19:44;;;;;;;;;;;;;;;;;;5071430;28;19920;-69
2023/12/18 08:22:10;;;;;;;;;;;;;;;;;;5067832;28;20000;-71
2023/12/18 08:24:36;;;;;;;;;;;;;;;;;;5086137;28;19908;-67
2023/12/18 08:27:02;;;;;;;;;;;;;;;;;;5086191;28;19920;-68
2023/12/18 08:29:29;;;;;;;;;;;;;;;;;;5087657;28;19912;-69
2023/12/18 08:31:55;;;;;;;;;;;;;;;;;;5081037;28;20284;-71
2023/12/18 08:34:21;;;;;;;;;;;;;;;;;;5087779;28;19965;-70
2023/12/18 08:36:47;;;;;;;;;;;;;;;;;;5089957;28;19912;-71
2023/12/18 08:39:13;;;;;;;;;;;;;;;;;;5088529;28;19919;-69
2023/12/18 08:41:41;;;;;;;;;;;;;;;;;;5086724;28;19908;-71
2023/12/18 08:44:07;;;;;;;;;;;;;;;;;;5087070;28;19916;-70
2023/12/18 08:46:33;;;;;;;;;;;;;;;;;;5086285;28;19927;-70
2023/12/18 08:49:00;;;;;;;;;;;;;;;;;;5086683;28;20418;-71
2023/12/18 08:51:26;;;;;;;;;;;;;;;;;;5086969;28;19912;-76
2023/12/18 08:53:54;;;;;;;;;;;;;;;;;;5081103;28;19908;-84
2023/12/18 08:56:20;;;;;;;;;;;;;;;;;;5088898;28;19924;-71
2023/12/18 08:58:46;;;;;;;;;;;;;;;;;;5088592;28;19916;-72
2023/12/18 09:01:12;;;;;;;;;;;;;;;;;;5078195;28;19943;-71
2023/12/18 09:03:38;;;;;;;;;;;;;;;;;;5089449;28;20335;-70
2023/12/18 09:06:04;;;;;;;;;;;;;;;;;;5089671;28;19954;-71
2023/12/18 09:08:39;;;;;;;;;;;;;;;;;;5089367;28;19908;-71
2023/12/18 09:11:06;;;;;;;;;;;;;;;;;;5079943;28;19919;-69
2023/12/18 09:13:33;;;;;;;;;;;;;;;;;;5090894;28;19912;-73
2023/12/18 09:15:59;;;;;;;;;;;;;;;;;;5091100;28;20437;-70
2023/12/18 09:18:25;;;;;;;;;;;;;;;;;;5091486;28;19916;-71
2023/12/18 09:20:51;;;;;;;;;;;;;;;;;;5091413;28;20365;-68
2023/12/18 09:23:17;;;;;;;;;;;;;;;;;;5090835;28;20591;-69
2023/12/18 09:25:43;;;;;;;;;;;;;;;;;;5071726;28;19978;-68
2023/12/18 09:28:09;;;;;;;;;;;;;;;;;;5090339;28;20046;-69
2023/12/18 09:30:35;;;;;;;;;;;;;;;;;;5090578;28;19908;-68
2023/12/18 09:33:01;;;;;;;;;;;;;;;;;;5089582;28;20412;-72
2023/12/18 09:35:27;;;;;;;;;;;;;;;;;;5090151;28;19916;-70
2023/12/18 09:37:53;;;;;;;;;;;;;;;;;;5091170;28;20006;-71
2023/12/18 09:40:22;;;;;;;;;;;;;;;;;;5091398;28;19911;-70
2023/12/18 09:42:48;;;;;;;;;;;;;;;;;;5088895;28;19916;-69
2023/12/18 09:45:14;;;;;;;;;;;;;;;;;;5078591;28;19985;-71
2023/12/18 09:47:41;;;;;;;;;;;;;;;;;;5089392;28;20275;-68
2023/12/18 09:50:09;;;;;;;;;;;;;;;;;;5091092;28;19912;-68
2023/12/18 09:52:35;;;;;;;;;;;;;;;;;;5084500;28;19947;-73
2023/12/18 09:55:04;;;;;;;;;;;;;;;;;;5070564;28;19967;-70
2023/12/18 09:57:30;;;;;;;;;;;;;;;;;;5087797;28;20296;-70
2023/12/18 09:59:56;;;;;;;;;;;;;;;;;;5087018;28;19919;-69
2023/12/18 10:02:22;;;;;;;;;;;;;;;;;;5070070;28;19943;-70
2023/12/18 10:04:48;;;;;;;;;;;;;;;;;;5091277;28;19991;-71
2023/12/18 10:07:14;;;;;;;;;;;;;;;;;;5070185;28;20388;-71
2023/12/18 10:09:39;;;;;;;;;;;;;;;;;;5088137;28;19908;-69
2023/12/18 10:12:06;;;;;;;;;;;;;;;;;;5088589;28;20261;-70
2023/12/18 10:14:32;;;;;;;;;;;;;;;;;;5079400;28;19912;-70
2023/12/18 10:16:58;;;;;;;;;;;;;;;;;;5071248;28;20386;-69
2023/12/18 10:19:24;;;;;;;;;;;;;;;;;;5090186;28;19908;-70
2023/12/18 10:21:50;;;;;;;;;;;;;;;;;;5092222;28;20354;-72
2023/12/18 10:24:16;;;;;;;;;;;;;;;;;;5095120;28;20432;-71
2023/12/18 10:26:42;;;;;;;;;;;;;;;;;;5076425;28;19924;-74
2023/12/18 10:29:08;;;;;;;;;;;;;;;;;;5109753;28;19919;-69
2023/12/18 10:31:34;;;;;;;;;;;;;;;;;;5088323;28;19912;-71
2023/12/18 10:34:02;;;;;;;;;;;;;;;;;;5095617;28;20380;-71
2023/12/18 10:36:28;;;;;;;;;;;;;;;;;;5095887;28;19923;-72
2023/12/18 10:38:54;;;;;;;;;;;;;;;;;;5094699;28;19908;-71
2023/12/18 10:41:21;;;;;;;;;;;;;;;;;;5092306;28;19922;-70
2023/12/18 10:43:46;;;;;;;;;;;;;;;;;;5073458;28;20032;-71
2023/12/18 10:46:13;;;;;;;;;;;;;;;;;;5092504;28;20457;-73
2023/12/18 10:48:39;;;;;;;;;;;;;;;;;;5092548;28;20327;-73
2023/12/18 10:51:05;;;;;;;;;;;;;;;;;;5100505;28;19912;-73
2023/12/18 10:53:34;;;;;;;;;;;;;;;;;;5108140;28;19970;-76
2023/12/18 10:56:01;;;;;;;;;;;;;;;;;;5092374;28;19973;-73
2023/12/18 10:58:27;;;;;;;;;;;;;;;;;;5092346;28;19965;-74
2023/12/18 11:00:53;;;;;;;;;;;;;;;;;;5091236;28;19916;-73
2023/12/18 11:03:19;;;;;;;;;;;;;;;;;;5090201;28;19959;-73
2023/12/18 11:05:46;;;;;;;;;;;;;;;;;;5089970;28;19920;-73
2023/12/18 11:08:12;;;;;;;;;;;;;;;;;;5082346;28;19912;-73
2023/12/18 11:10:38;;;;;;;;;;;;;;;;;;5071623;28;19915;-73
2023/12/18 11:13:04;;;;;;;;;;;;;;;;;;5090440;28;19908;-73
2023/12/18 11:15:30;;;;;;;;;;;;;;;;;;5071748;28;19919;-74
2023/12/18 11:17:56;;;;;;;;;;;;;;;;;;5074321;28;19912;-71
2023/12/18 11:20:22;;;;;;;;;;;;;;;;;;5092547;28;19912;-72
2023/12/18 11:22:48;;;;;;;;;;;;;;;;;;5092573;28;19908;-73
2023/12/18 11:25:14;;;;;;;;;;;;;;;;;;5094176;28;20390;-74
2023/12/18 11:27:40;;;;;;;;;;;;;;;;;;5076873;28;19915;-73
2023/12/18 11:30:06;;;;;;;;;;;;;;;;;;5094995;28;19998;-74
2023/12/18 11:32:32;;;;;;;;;;;;;;;;;;5074760;28;19915;-74
2023/12/18 11:34:58;;;;;;;;;;;;;;;;;;5091690;28;19912;-74
2023/12/18 11:37:24;;;;;;;;;;;;;;;;;;5091854;28;19949;-74
2023/12/18 11:39:49;;;;;;;;;;;;;;;;;;5093067;28;20070;-75
2023/12/18 11:42:16;;;;;;;;;;;;;;;;;;5093215;28;19917;-78
2023/12/18 11:44:42;;;;;;;;;;;;;;;;;;5092054;28;19908;-75
2023/12/18 11:47:08;;;;;;;;;;;;;;;;;;5090624;28;19920;-73
2023/12/18 11:49:34;;;;;;;;;;;;;;;;;;5075224;28;20331;-73
2023/12/18 11:51:59;;;;;;;;;;;;;;;;;;5093895;28;20023;-73
2023/12/18 11:54:25;;;;;;;;;;;;;;;;;;5095266;28;19915;-73
2023/12/18 11:56:51;;;;;;;;;;;;;;;;;;5094405;28;19951;-74
2023/12/18 11:59:22;;;;;;;;;;;;;;;;;;5093766;28;19912;-73
2023/12/18 12:01:48;;;;;;;;;;;;;;;;;;5094453;28;20333;-74
2023/12/18 12:04:14;;;;;;;;;;;;;;;;;;5093830;28;20421;-73
2023/12/18 12:09:36;;;;;;;;;;;;;;;;;;5087762;27;19939;-71
2023/12/18 12:12:02;;;;;;;;;;;;;;;;;;5088146;28;19970;-71
2023/12/18 12:14:28;;;;;;;;;;;;;;;;;;5087386;28;20315;-71
2023/12/18 12:16:54;;;;;;;;;;;;;;;;;;5074730;28;20296;-71
2023/12/18 12:19:20;;;;;;;;;;;;;;;;;;5066071;28;19948;-67
2023/12/18 12:21:46;;;;;;;;;;;;;;;;;;5110998;28;19986;-68
2023/12/18 12:25:46;;;;;;;;;;;;;;;;;;5087511;27;19920;-66
2023/12/18 12:28:12;;;;;;;;;;;;;;;;;;5070770;28;19960;-68
2023/12/18 12:30:38;;;;;;;;;;;;;;;;;;5070189;28;19986;-70
2023/12/18 12:33:04;;;;;;;;;;;;;;;;;;5065980;28;19921;-72
2023/12/18 12:35:30;;;;;;;;;;;;;;;;;;5075701;28;19944;-69
2023/12/18 12:37:56;;;;;;;;;;;;;;;;;;5066781;28;19913;-69
2023/12/18 12:40:22;;;;;;;;;;;;;;;;;;5073537;28;19956;-71
2023/12/18 12:42:48;;;;;;;;;;;;;;;;;;5028123;28;19916;-73
2023/12/18 12:46:20;;;;;;;;;;;;;;;;;;5063665;27;20303;-74
2023/12/18 12:51:29;;;;;;;;;;;;;;;;;;5056801;27;19927;-68
2023/12/18 12:53:55;;;;;;;;;;;;;;;;;;5081965;28;19913;-68
2023/12/18 12:56:21;;;;;;;;;;;;;;;;;;5059649;28;19909;-70
2023/12/18 12:58:47;;;;;;;;;;;;;;;;;;5067463;28;20356;-70
2023/12/18 13:01:13;;;;;;;;;;;;;;;;;;5059817;28;19916;-71
2023/12/18 13:03:39;;;;;;;;;;;;;;;;;;5068032;28;19919;-71
2023/12/18 13:08:11;;;;;;;;;;;;;;;;;;5110499;27;19920;-70
2023/12/18 13:14:09;;;;;;;;;;;;;;;;;;5089721;28;20284;-71
2023/12/18 13:16:35;;;;;;;;;;;;;;;;;;5088571;28;19917;-71
2023/12/18 13:22:26;;;;;;;;;;;;;;;;;;5088554;27;19923;-68
2023/12/18 13:25:05;;;;;;;;;;;;;;;;;;5088642;27;19916;-71
2023/12/18 13:27:31;;;;;;;;;;;;;;;;;;5087508;28;20395;-71
2023/12/18 13:29:57;;;;;;;;;;;;;;;;;;5087113;28;19912;-70
2023/12/18 13:32:26;;;;;;;;;;;;;;;;;;5089498;28;19916;-70
2023/12/18 13:38:11;;;;;;;;;;;;;;;;;;5110860;27;19920;-68
2023/12/18 13:40:37;;;;;;;;;;;;;;;;;;5118181;28;20363;-69
2023/12/18 13:44:57;;;;;;;;;;;;;;;;;;5109872;27;19912;-69
2023/12/18 13:47:24;;;;;;;;;;;;;;;;;;5110608;28;19919;-72
2023/12/18 13:54:33;;;;;;;;;;;;;;;;;;5090281;27;19916;-72
2023/12/18 13:57:09;;;;;;;;;;;;;;;;;;5089379;28;19923;-68
2023/12/18 14:00:10;;;;;;;;;;;;;;;;;;5112515;27;19916;-71
2023/12/18 14:04:24;;;;;;;;;;;;;;;;;;5090721;27;19916;-75
2023/12/18 14:07:14;;;;;;;;;;;;;;;;;;5089234;27;19917;-74
2023/12/18 14:09:40;;;;;;;;;;;;;;;;;;5086883;28;19919;-75
2023/12/18 14:14:15;;;;;;;;;;;;;;;;;;5067866;28;19923;-74
2023/12/18 14:16:41;;;;;;;;;;;;;;;;;;5065228;28;19913;-74
2023/12/18 14:19:07;;;;;;;;;;;;;;;;;;5064261;28;19908;-75
2023/12/18 14:21:33;;;;;;;;;;;;;;;;;;5066526;28;19963;-75
2023/12/18 14:25:51;;;;;;;;;;;;;;;;;;5089013;28;19923;-75
2023/12/18 14:28:16;;;;;;;;;;;;;;;;;;5089104;28;20007;-74
2023/12/18 14:34:31;;;;;;;;;;;;;;;;;;5068149;28;19923;-73
2023/12/18 14:36:57;;;;;;;;;;;;;;;;;;5068235;28;19913;-73
2023/12/18 14:40:28;;;;;;;;;;;;;;;;;;5089022;27;20292;-74
2023/12/18 14:42:54;;;;;;;;;;;;;;;;;;5088704;28;20368;-74
2023/12/18 14:45:20;;;;;;;;;;;;;;;;;;5090413;28;19908;-74
2023/12/18 14:47:46;;;;;;;;;;;;;;;;;;5090921;28;20364;-74
2023/12/18 14:50:12;;;;;;;;;;;;;;;;;;5091080;28;20394;-74
2023/12/18 14:52:38;;;;;;;;;;;;;;;;;;5091057;28;20342;-74
2023/12/18 14:55:04;;;;;;;;;;;;;;;;;;5090556;28;19999;-74
2023/12/18 14:57:30;;;;;;;;;;;;;;;;;;5089520;28;19909;-73
2023/12/18 14:59:56;;;;;;;;;;;;;;;;;;5090925;28;20003;-74
2023/12/18 15:02:22;;;;;;;;;;;;;;;;;;5090542;28;19916;-73
2023/12/18 15:04:48;;;;;;;;;;;;;;;;;;5090877;28;19908;-73
2023/12/18 15:07:14;;;;;;;;;;;;;;;;;;5090086;28;19918;-73
2023/12/18 15:09:40;;;;;;;;;;;;;;;;;;5089459;28;20270;-74
2023/12/18 15:12:06;;;;;;;;;;;;;;;;;;5091333;28;20065;-73
2023/12/18 15:14:32;;;;;;;;;;;;;;;;;;5090765;28;19908;-74
2023/12/18 15:17:03;;;;;;;;;;;;;;;;;;5090739;28;20023;-74
2023/12/18 15:19:29;;;;;;;;;;;;;;;;;;5090758;28;19925;-74
2023/12/18 15:21:55;;;;;;;;;;;;;;;;;;5090245;28;19909;-74
2023/12/18 15:24:21;;;;;;;;;;;;;;;;;;5091033;28;20387;-74
2023/12/18 15:26:47;;;;;;;;;;;;;;;;;;5090474;28;20273;-74
2023/12/18 15:29:13;;;;;;;;;;;;;;;;;;5090191;28;20284;-74
2023/12/18 15:31:39;;;;;;;;;;;;;;;;;;5090474;28;19915;-74
2023/12/18 15:34:05;;;;;;;;;;;;;;;;;;5090351;28;19908;-74
2023/12/18 15:36:31;;;;;;;;;;;;;;;;;;5089957;28;20368;-74
2023/12/18 15:38:57;;;;;;;;;;;;;;;;;;5098418;28;20407;-74
2023/12/18 15:41:23;;;;;;;;;;;;;;;;;;5110555;28;20411;-74
2023/12/18 15:43:49;;;;;;;;;;;;;;;;;;5110235;28;19915;-75
2023/12/18 15:46:15;;;;;;;;;;;;;;;;;;5110686;28;19958;-74
2023/12/18 15:48:40;;;;;;;;;;;;;;;;;;5110610;28;19915;-74
2023/12/18 15:51:07;;;;;;;;;;;;;;;;;;5082026;28;19908;-74
2023/12/18 15:53:33;;;;;;;;;;;;;;;;;;5096790;28;19931;-74
2023/12/18 15:55:59;;;;;;;;;;;;;;;;;;5096709;28;20379;-74
2023/12/18 15:58:25;;;;;;;;;;;;;;;;;;5078277;28;19918;-74
2023/12/18 16:00:51;;;;;;;;;;;;;;;;;;5096644;28;19918;-74
2023/12/18 16:03:17;;;;;;;;;;;;;;;;;;5096634;28;19912;-74
2023/12/18 16:05:44;;;;;;;;;;;;;;;;;;5096177;28;19961;-75
2023/12/18 16:08:10;;;;;;;;;;;;;;;;;;5096410;28;19909;-74
2023/12/18 16:10:37;;;;;;;;;;;;;;;;;;5096034;28;19908;-75
2023/12/18 16:13:03;;;;;;;;;;;;;;;;;;5096615;28;19912;-75
2023/12/18 16:15:29;;;;;;;;;;;;;;;;;;5096797;28;20375;-74
2023/12/18 16:17:55;;;;;;;;;;;;;;;;;;5095970;28;19908;-74
2023/12/18 16:20:21;;;;;;;;;;;;;;;;;;5096100;28;20284;-74
2023/12/18 16:22:47;;;;;;;;;;;;;;;;;;5096392;28;19912;-74
2023/12/18 16:25:13;;;;;;;;;;;;;;;;;;5077619;28;19950;-74
2023/12/18 16:27:39;;;;;;;;;;;;;;;;;;5096042;28;19908;-74
2023/12/18 16:30:05;;;;;;;;;;;;;;;;;;5096099;28;19954;-73
2023/12/18 16:32:31;;;;;;;;;;;;;;;;;;5095584;28;19908;-73
2023/12/18 16:34:57;;;;;;;;;;;;;;;;;;5095972;28;20361;-74
2023/12/18 16:37:23;;;;;;;;;;;;;;;;;;5096222;28;20403;-73
2023/12/18 16:39:49;;;;;;;;;;;;;;;;;;5095363;28;20291;-73
2023/12/18 16:42:15;;;;;;;;;;;;;;;;;;5096175;28;19908;-74
2023/12/18 16:44:41;;;;;;;;;;;;;;;;;;5077633;28;20062;-74
2023/12/18 16:47:07;;;;;;;;;;;;;;;;;;5095481;28;20007;-74
2023/12/18 16:49:33;;;;;;;;;;;;;;;;;;5095583;28;20382;-73
2023/12/18 16:51:59;;;;;;;;;;;;;;;;;;5077800;28;19985;-73
2023/12/18 16:54:25;;;;;;;;;;;;;;;;;;5095193;28;19908;-74
2023/12/18 16:56:51;;;;;;;;;;;;;;;;;;5095595;28;20041;-74
2023/12/18 16:59:17;;;;;;;;;;;;;;;;;;5095212;28;20368;-73
2023/12/18 17:01:43;;;;;;;;;;;;;;;;;;5094198;28;19908;-73
2023/12/18 17:04:09;;;;;;;;;;;;;;;;;;5077048;28;19908;-73
2023/12/18 17:06:35;;;;;;;;;;;;;;;;;;5095481;28;19958;-74
2023/12/18 17:09:01;;;;;;;;;;;;;;;;;;5094893;28;19912;-73
2023/12/18 17:11:27;;;;;;;;;;;;;;;;;;5095396;28;20330;-74
2023/12/18 17:13:53;;;;;;;;;;;;;;;;;;5076702;28;19909;-74
2023/12/18 17:16:19;;;;;;;;;;;;;;;;;;5095200;28;20261;-74